Time;durP1;ratioP1;P1;durP2;ratioP2;P2;SDS_P1;SDS_P2;PMS_P1;PMS_P2;Temp;Humidity;BMP_temperature;BMP_pressure;BME280_temperature;BME280_humidity;BME280_pressure;Samples;Min_cycle;Max_cycle;Signal;HPM_P1;HPM_P2
2023/04/24 00:02:31;;;;;;;4.03;3.47;;;10.30;99.90;;;10.89;100.00;96904.47;5114038;28;20585;-64
2023/04/24 00:05:05;;;;;;;3.70;3.38;;;10.20;99.90;;;10.91;100.00;96909.66;5109868;28;20420;-64
2023/04/24 00:07:38;;;;;;;3.33;3.13;;;10.20;99.90;;;10.94;100.00;96922.56;5108755;28;20291;-64
2023/04/24 00:10:12;;;;;;;2.90;2.70;;;10.20;99.90;;;11.01;100.00;96924.53;5112990;28;20219;-64
2023/04/24 00:12:45;;;;;;;2.88;2.67;;;10.30;99.90;;;11.01;100.00;96919.44;5118117;28;20319;-64
2023/04/24 00:15:18;;;;;;;2.60;2.40;;;10.20;99.90;;;10.94;100.00;96922.56;5110448;28;20197;-64
2023/04/24 00:17:53;;;;;;;2.65;2.50;;;10.20;99.90;;;10.92;100.00;96922.50;5110933;28;20691;-64
2023/04/24 00:20:28;;;;;;;3.10;2.83;;;10.20;99.90;;;10.88;100.00;96922.31;5114337;28;20211;-64
2023/04/24 00:23:01;;;;;;;2.85;2.75;;;10.20;99.90;;;10.84;100.00;96926.41;5114490;28;20204;-64
2023/04/24 00:25:34;;;;;;;3.10;2.90;;;10.10;99.90;;;10.79;100.00;96939.03;5115868;28;20636;-64
2023/04/24 00:28:07;;;;;;;3.17;2.97;;;10.10;99.90;;;10.78;100.00;96933.84;5110443;28;20244;-64
2023/04/24 00:30:41;;;;;;;3.40;3.20;;;10.10;99.90;;;10.84;100.00;96931.53;5108041;28;20232;-64
2023/04/24 00:33:15;;;;;;;3.08;2.88;;;10.10;99.90;;;10.76;100.00;96927.81;5115838;28;20207;-64
2023/04/24 00:35:48;;;;;;;3.20;3.00;;;10.10;99.90;;;10.80;100.00;96924.56;5113313;28;20211;-64
2023/04/24 00:38:21;;;;;;;3.20;3.03;;;10.10;99.90;;;10.85;100.00;96927.31;5108789;28;20235;-64
2023/04/24 00:40:55;;;;;;;3.20;2.90;;;10.10;99.90;;;10.89;100.00;96932.59;5108710;28;20201;-65
2023/04/24 00:43:28;;;;;;;2.80;2.60;;;10.20;99.90;;;10.90;100.00;96941.13;5115042;28;20295;-65
2023/04/24 00:46:01;;;;;;;2.78;2.67;;;10.10;99.90;;;10.71;100.00;96935.28;5117081;28;20394;-64
2023/04/24 00:48:36;;;;;;;2.78;2.58;;;10.00;99.90;;;10.77;100.00;96940.66;5111895;28;20229;-65
2023/04/24 00:51:10;;;;;;;2.78;2.67;;;10.10;99.90;;;10.65;100.00;96931.59;5109304;28;20234;-64
2023/04/24 00:53:43;;;;;;;2.58;2.38;;;9.90;99.90;;;10.65;100.00;96927.38;5104716;28;20201;-64
2023/04/24 00:56:16;;;;;;;2.88;2.67;;;9.90;99.90;;;10.73;100.00;96928.56;5105455;28;20208;-64
2023/04/24 00:58:49;;;;;;;2.83;2.63;;;10.00;99.90;;;10.70;100.00;96922.41;5115025;28;20220;-64
2023/04/24 01:01:23;;;;;;;2.70;2.50;;;10.00;99.90;;;10.76;100.00;96928.69;5112058;28;20680;-64
2023/04/24 01:03:59;;;;;;;3.10;2.80;;;10.00;99.90;;;10.78;100.00;96916.81;5105734;28;20229;-65
2023/04/24 01:06:33;;;;;;;2.50;2.30;;;10.00;99.90;;;10.69;100.00;96919.00;5105821;28;20274;-64
2023/04/24 01:09:06;;;;;;;2.90;2.70;;;9.90;99.90;;;10.69;100.00;96916.44;5115029;28;20217;-65
2023/04/24 01:11:42;;;;;;;2.80;2.60;;;9.90;99.90;;;10.70;100.00;96905.44;5112087;28;20210;-65
2023/04/24 01:14:15;;;;;;;2.35;2.25;;;10.00;99.90;;;10.72;100.00;96905.47;5111044;28;20208;-65
2023/04/24 01:16:48;;;;;;;2.63;2.35;;;10.00;99.90;;;10.64;100.00;96907.72;5100935;28;20233;-65
2023/04/24 01:19:23;;;;;;;2.38;2.20;;;9.90;99.90;;;10.72;100.00;96901.22;5113364;28;20570;-65
2023/04/24 01:21:59;;;;;;;2.40;2.20;;;10.00;99.90;;;10.68;100.00;96899.38;5107660;28;20204;-65
2023/04/24 01:24:34;;;;;;;2.75;2.55;;;10.00;99.90;;;10.74;100.00;96891.09;5112021;28;20687;-65
2023/04/24 01:27:08;;;;;;;3.45;2.53;;;10.00;99.90;;;10.69;100.00;96893.44;5109372;28;20265;-63
2023/04/24 01:29:41;;;;;;;2.58;2.40;;;9.90;99.90;;;10.75;100.00;96891.13;5103665;28;20220;-65
2023/04/24 01:32:15;;;;;;;3.58;2.78;;;10.00;99.90;;;10.57;100.00;96892.94;5113302;28;20664;-65
2023/04/24 01:34:49;;;;;;;2.95;2.65;;;9.80;99.90;;;10.57;100.00;96895.50;5111252;28;20205;-65
2023/04/24 01:37:22;;;;;;;2.95;2.78;;;9.80;99.90;;;10.58;100.00;96887.03;5109154;28;20251;-63
2023/04/24 01:39:56;;;;;;;2.97;2.40;;;9.80;99.90;;;10.50;100.00;96888.38;5110644;28;20224;-65
2023/04/24 01:42:30;;;;;;;3.22;2.88;;;9.80;99.90;;;10.43;100.00;96887.25;5111489;28;20208;-65
2023/04/24 01:45:06;;;;;;;4.05;2.90;;;9.80;99.90;;;10.49;100.00;96889.19;5114897;28;20204;-65
2023/04/24 01:47:39;;;;;;;4.60;2.88;;;9.80;99.90;;;10.56;100.00;96875.88;5113917;28;20355;-64
2023/04/24 01:50:12;;;;;;;3.38;3.10;;;9.90;99.90;;;10.57;100.00;96877.63;5105328;28;20209;-66
2023/04/24 01:52:45;;;;;;;2.83;2.63;;;9.90;99.90;;;10.53;100.00;96883.41;5108732;28;20212;-65
2023/04/24 01:55:20;;;;;;;2.78;2.67;;;9.80;99.90;;;10.56;100.00;96883.56;5113737;28;20200;-64
2023/04/24 01:57:56;;;;;;;3.63;3.38;;;9.80;99.90;;;10.90;100.00;96882.34;5112632;28;20239;-65
2023/04/24 02:00:29;;;;;;;3.40;3.10;;;10.00;99.90;;;10.70;100.00;96877.31;5111548;28;20205;-66
2023/04/24 02:03:02;;;;;;;3.25;3.05;;;9.90;99.90;;;10.62;100.00;96883.81;5112781;28;20296;-65
2023/04/24 02:05:36;;;;;;;5.28;4.75;;;9.90;99.90;;;10.58;100.00;96876.81;5119061;28;20220;-63
2023/04/24 02:08:08;;;;;;;5.97;5.43;;;9.90;99.90;;;10.77;100.00;96876.75;5118239;28;20595;-65
2023/04/24 02:10:43;;;;;;;5.95;5.35;;;10.00;99.90;;;10.80;100.00;96883.66;5118604;28;20219;-65
2023/04/24 02:13:16;;;;;;;5.25;4.75;;;10.00;99.90;;;10.76;100.00;96880.13;5119014;28;20208;-64
2023/04/24 02:15:49;;;;;;;4.72;4.43;;;10.00;99.90;;;10.63;100.00;96872.75;5118184;28;20592;-65
2023/04/24 02:18:22;;;;;;;5.05;4.65;;;9.90;99.90;;;10.48;100.00;96878.13;5117022;28;20248;-65
2023/04/24 02:20:55;;;;;;;4.35;4.05;;;9.80;99.90;;;10.51;100.00;96879.94;5118988;28;20200;-66
2023/04/24 02:23:28;;;;;;;5.25;3.40;;;9.80;99.90;;;10.56;100.00;96874.19;5118814;28;20218;-65
2023/04/24 02:26:03;;;;;;;3.60;3.40;;;9.80;99.90;;;10.54;100.00;96874.94;5119816;28;20209;-62
2023/04/24 02:28:36;;;;;;;3.67;3.47;;;9.80;99.90;;;10.46;100.00;96882.28;5118453;28;20232;-65
2023/04/24 02:31:09;;;;;;;3.35;3.08;;;9.80;99.90;;;10.47;100.00;96883.16;5119556;28;20212;-66
2023/04/24 02:33:42;;;;;;;2.78;2.58;;;9.80;99.90;;;10.42;100.00;96884.66;5119334;28;20208;-65
2023/04/24 02:36:15;;;;;;;3.47;3.20;;;9.70;99.90;;;10.46;100.00;96878.88;5116683;28;20204;-65
2023/04/24 02:38:48;;;;;;;2.88;2.67;;;9.80;99.90;;;10.37;100.00;96880.22;5118954;28;20782;-65
2023/04/24 02:41:22;;;;;;;2.97;2.78;;;9.70;99.90;;;10.38;100.00;96881.94;5118676;28;20204;-65
2023/04/24 02:43:55;;;;;;;3.88;2.70;;;9.70;99.90;;;10.40;100.00;96881.16;5119448;28;20211;-66
2023/04/24 02:46:28;;;;;;;3.20;3.00;;;9.70;99.90;;;10.42;100.00;96874.44;5118186;28;20223;-63
2023/04/24 02:49:02;;;;;;;3.05;2.83;;;9.70;99.90;;;10.50;100.00;96876.50;5118507;28;20576;-66
2023/04/24 02:51:37;;;;;;;2.90;2.70;;;9.80;99.90;;;10.41;100.00;96882.91;5118073;29;20220;-65
2023/04/24 02:54:10;;;;;;;3.03;2.70;;;9.70;99.90;;;10.51;100.00;96879.94;5119535;28;20215;-64
2023/04/24 02:56:45;;;;;;;2.90;2.70;;;9.80;99.90;;;10.55;100.00;96874.13;5115499;28;20209;-65
2023/04/24 02:59:18;;;;;;;2.92;2.72;;;9.90;99.90;;;10.64;100.00;96871.06;5117593;28;20258;-65
2023/04/24 03:01:51;;;;;;;2.85;2.75;;;9.90;99.90;;;10.67;100.00;96868.63;5117526;28;20675;-63
2023/04/24 03:04:24;;;;;;;3.00;2.80;;;10.00;99.90;;;10.64;100.00;96866.81;5118320;28;20643;-65
2023/04/24 03:06:57;;;;;;;2.88;2.60;;;9.90;99.90;;;10.60;100.00;96867.53;5114593;28;20233;-64
2023/04/24 03:09:30;;;;;;;3.78;2.60;;;9.90;99.90;;;10.57;100.00;96869.97;5114681;28;20229;-64
2023/04/24 03:12:05;;;;;;;3.28;2.63;;;9.90;99.90;;;10.59;100.00;96870.91;5110612;28;20213;-64
2023/04/24 03:14:37;;;;;;;2.85;2.63;;;9.90;99.90;;;10.55;100.00;96867.31;5114251;28;20587;-65
2023/04/24 03:17:10;;;;;;;3.10;2.80;;;9.90;99.90;;;10.58;100.00;96862.34;5113082;28;20208;-65
2023/04/24 03:19:44;;;;;;;2.85;2.65;;;9.90;99.90;;;10.62;100.00;96871.03;5116870;28;20243;-65
2023/04/24 03:22:17;;;;;;;2.70;2.50;;;9.90;99.90;;;10.69;100.00;96870.44;5110723;28;20232;-65
2023/04/24 03:24:50;;;;;;;2.53;2.42;;;10.00;99.90;;;10.73;100.00;96874.88;5109878;28;20207;-65
2023/04/24 03:27:25;;;;;;;3.20;2.72;;;10.00;99.90;;;10.76;100.00;96881.81;5112304;29;20213;-65
2023/04/24 03:29:58;;;;;;;2.70;2.50;;;10.00;99.90;;;10.73;100.00;96872.34;5110462;28;20429;-65
2023/04/24 03:32:32;;;;;;;2.60;2.47;;;10.00;99.90;;;10.76;100.00;96881.81;5116630;28;20205;-64
2023/04/24 03:35:06;;;;;;;2.65;2.55;;;10.10;99.90;;;10.82;100.00;96884.59;5111812;28;20522;-62
2023/04/24 03:37:39;;;;;;;2.30;2.20;;;10.10;99.90;;;10.83;100.00;96887.22;5111322;28;21317;-64
2023/04/24 03:40:12;;;;;;;4.35;3.17;;;10.10;99.90;;;10.87;100.00;96892.44;5117069;28;20213;-65
2023/04/24 03:42:46;;;;;;;3.22;2.92;;;10.10;99.90;;;10.87;100.00;96887.31;5115075;28;20209;-63
2023/04/24 03:45:20;;;;;;;2.97;2.67;;;10.10;99.90;;;10.87;100.00;96884.78;5117742;28;20618;-64
2023/04/24 03:47:53;;;;;;;3.00;2.70;;;10.20;99.90;;;10.87;100.00;96883.09;5109065;28;20315;-66
2023/04/24 03:50:26;;;;;;;2.92;2.60;;;10.20;99.90;;;10.75;100.00;96878.34;5117919;28;20647;-64
2023/04/24 03:52:59;;;;;;;3.10;2.90;;;10.00;99.90;;;10.56;100.00;96873.34;5116273;28;20205;-65
2023/04/24 03:55:32;;;;;;;2.40;2.30;;;9.90;99.90;;;10.57;100.00;96877.63;5118788;28;20215;-65
2023/04/24 03:58:06;;;;;;;3.10;2.90;;;9.90;99.90;;;10.49;100.00;96881.53;5111454;28;20224;-65
2023/04/24 04:00:40;;;;;;;3.22;2.95;;;9.90;99.90;;;10.52;100.00;96874.88;5109083;28;20216;-65
2023/04/24 04:03:14;;;;;;;3.13;2.90;;;9.90;99.90;;;10.56;100.00;96874.19;5114435;28;20288;-64
2023/04/24 04:05:47;;;;;;;3.20;3.00;;;9.90;99.90;;;10.59;100.00;96883.69;5112567;28;20204;-65
2023/04/24 04:08:20;;;;;;;3.30;3.10;;;9.90;99.90;;;10.76;100.00;96881.81;5117328;28;20226;-65
2023/04/24 04:10:53;;;;;;;2.97;2.78;;;10.00;99.90;;;10.76;100.00;96892.91;5107122;28;20213;-64
2023/04/24 04:13:27;;;;;;;3.38;3.17;;;10.00;99.90;;;10.66;100.00;96889.91;5112130;28;20201;-65
2023/04/24 04:16:00;;;;;;;3.15;2.90;;;10.00;99.90;;;10.66;100.00;96895.88;5113146;28;20212;-64
2023/04/24 04:18:34;;;;;;;3.75;3.38;;;10.00;99.90;;;10.65;100.00;96883.91;5113343;28;20236;-65
2023/04/24 04:21:07;;;;;;;4.13;3.83;;;10.00;99.90;;;10.47;100.00;96899.38;5108053;28;20266;-65
2023/04/24 04:23:40;;;;;;;3.92;3.70;;;9.90;99.90;;;10.50;100.00;96901.16;5120187;28;20232;-63
2023/04/24 04:26:13;;;;;;;4.20;3.90;;;9.90;99.90;;;10.45;100.00;96890.75;5114830;28;20204;-66
2023/04/24 04:28:48;;;;;;;3.85;3.55;;;9.80;99.90;;;10.49;100.00;96892.63;5114585;28;20225;-65
2023/04/24 04:31:23;;;;;;;4.30;3.90;;;9.90;99.90;;;10.56;100.00;96898.88;5109084;28;20205;-65
2023/04/24 04:33:56;;;;;;;4.00;3.70;;;9.90;99.90;;;10.55;100.00;96892.88;5113764;28;20805;-65
2023/04/24 04:36:29;;;;;;;4.18;3.88;;;9.90;99.90;;;10.55;100.00;96892.88;5115345;28;20224;-64
2023/04/24 04:39:02;;;;;;;5.32;4.45;;;9.90;99.90;;;10.46;100.00;96896.75;5116032;28;20738;-65
2023/04/24 04:41:35;;;;;;;4.25;3.88;;;9.80;99.90;;;10.48;100.00;96901.09;5109705;28;20595;-66
2023/04/24 04:44:10;;;;;;;5.65;3.70;;;9.80;99.90;;;10.44;100.00;96903.47;5116582;28;20201;-65
2023/04/24 04:46:43;;;;;;;3.45;3.15;;;9.80;99.90;;;10.50;100.00;96903.72;5116808;28;20222;-64
2023/04/24 04:49:17;;;;;;;3.65;3.35;;;9.80;99.90;;;10.55;100.00;96907.34;5112422;28;20316;-65
2023/04/24 04:51:50;;;;;;;4.03;3.30;;;9.90;99.90;;;10.49;100.00;96904.53;5113095;28;20543;-65
2023/04/24 04:54:23;;;;;;;3.22;2.88;;;9.80;99.90;;;10.57;100.00;96910.84;5114434;28;20291;-64
2023/04/24 04:56:57;;;;;;;3.22;2.92;;;9.90;99.90;;;10.64;100.00;96923.03;5113012;28;20243;-66
2023/04/24 04:59:31;;;;;;;3.45;3.08;;;10.00;99.90;;;10.70;100.00;96925.88;5114461;28;20235;-64
2023/04/24 05:02:04;;;;;;;3.87;3.00;;;10.00;99.90;;;10.74;100.00;96934.53;5114460;28;20204;-65
2023/04/24 05:04:38;;;;;;;4.28;3.33;;;10.10;99.90;;;10.76;100.00;96944.03;5110721;28;20303;-65
2023/04/24 05:07:15;;;;;;;3.55;2.95;;;10.10;99.90;;;10.76;100.00;96977.25;5103346;28;20201;-65
2023/04/24 05:09:48;;;;;;;3.17;2.60;;;10.10;99.90;;;10.71;100.00;96973.63;5118743;28;20663;-65
2023/04/24 05:12:21;;;;;;;3.22;2.67;;;10.10;99.90;;;10.78;100.00;96972.19;5115858;28;20200;-66
2023/04/24 05:14:56;;;;;;;2.92;2.70;;;10.10;99.90;;;10.86;100.00;96980.19;5108784;28;20208;-65
2023/04/24 05:17:29;;;;;;;3.80;2.55;;;10.00;99.90;;;10.78;100.00;96983.28;5110579;28;20220;-64
2023/04/24 05:20:03;;;;;;;2.78;2.53;;;9.90;99.90;;;10.68;100.00;96985.41;5114075;28;20286;-65
2023/04/24 05:22:36;;;;;;;3.17;2.63;;;9.80;99.90;;;10.52;100.00;96983.88;5112927;28;20215;-65
2023/04/24 05:25:09;;;;;;;3.20;2.88;;;9.80;99.90;;;10.46;100.00;96997.25;5116875;28;20208;-64
2023/04/24 05:27:43;;;;;;;3.03;2.53;;;9.80;99.90;;;10.42;100.00;96997.06;5111439;28;20231;-65
2023/04/24 05:30:17;;;;;;;3.25;2.95;;;9.70;99.90;;;10.40;100.00;97004.66;5116839;28;20228;-65
2023/04/24 05:32:50;;;;;;;3.95;3.28;;;9.70;99.90;;;10.35;100.00;97001.88;5108199;28;20209;-65
2023/04/24 05:35:23;;;;;;;3.17;2.88;;;9.80;99.90;;;10.33;100.00;97003.50;5112859;28;20254;-65
2023/04/24 05:37:56;;;;;;;4.00;3.47;;;9.70;99.90;;;10.33;100.00;97015.38;5112122;29;20228;-65
2023/04/24 05:40:29;;;;;;;3.45;3.10;;;9.70;99.90;;;10.40;100.00;97004.66;5116444;28;20228;-65
2023/04/24 05:43:02;;;;;;;3.65;3.35;;;9.70;99.90;;;10.31;100.00;97010.22;5111902;28;20212;-64
2023/04/24 05:45:36;;;;;;;4.60;3.67;;;9.70;99.90;;;10.35;100.00;97018.88;5116878;28;20205;-65
2023/04/24 05:48:09;;;;;;;4.10;3.63;;;9.70;99.90;;;10.35;100.00;97022.31;5114424;28;20224;-65
2023/04/24 05:50:42;;;;;;;3.80;3.40;;;9.70;99.90;;;10.37;100.00;97028.38;5117431;28;20286;-64
2023/04/24 05:53:16;;;;;;;4.10;3.67;;;9.80;99.90;;;10.37;100.00;97036.03;5120107;28;20622;-65
2023/04/24 05:55:49;;;;;;;3.72;3.42;;;9.80;99.90;;;10.52;100.00;97034.97;5117244;28;20448;-63
2023/04/24 05:58:22;;;;;;;3.92;3.42;;;9.80;99.90;;;10.50;100.00;97039.13;5111432;28;20237;-64
2023/04/24 06:00:58;;;;;;;4.18;3.28;;;9.80;99.90;;;10.48;100.00;97040.75;5115394;28;20213;-64
2023/04/24 06:03:32;;;;;;;3.70;3.50;;;9.80;99.90;;;10.51;100.00;97046.00;5115266;28;20607;-64
2023/04/24 06:06:07;;;;;;;3.65;3.45;;;9.80;99.90;;;10.58;100.00;97058.22;5128765;28;20208;-65
2023/04/24 06:08:40;;;;;;;3.90;3.60;;;9.80;99.90;;;10.63;100.00;97058.44;5115479;28;20224;-64
2023/04/24 06:11:13;;;;;;;3.50;3.22;;;9.90;99.90;;;10.52;100.00;97053.72;5116447;28;20664;-64
2023/04/24 06:13:46;;;;;;;3.47;3.17;;;9.90;99.90;;;10.60;100.00;97060.03;5112963;28;20200;-64
2023/04/24 06:16:20;;;;;;;3.80;3.50;;;9.90;99.90;;;10.72;100.00;97069.91;5119051;28;20205;-65
2023/04/24 06:18:53;;;;;;;4.30;3.90;;;10.00;99.90;;;10.81;100.00;97077.97;5116455;28;20228;-65
2023/04/24 06:21:27;;;;;;;3.30;3.00;;;9.90;99.90;;;10.81;100.00;97069.44;5111118;28;20235;-65
2023/04/24 06:24:00;;;;;;;3.70;3.08;;;9.90;99.90;;;10.75;100.00;97075.16;5115802;28;20209;-64
2023/04/24 06:26:33;;;;;;;3.50;3.20;;;9.90;99.90;;;10.72;100.00;97080.13;5128680;28;20205;-65
2023/04/24 06:29:07;;;;;;;3.83;3.40;;;10.00;99.90;;;10.87;100.00;97079.06;5119480;28;20227;-65
2023/04/24 06:31:41;;;;;;;3.72;3.40;;;10.00;99.90;;;10.86;100.00;97082.44;5116764;28;20204;-65
2023/04/24 06:34:14;;;;;;;3.45;3.20;;;10.10;99.90;;;10.97;100.00;97091.44;5117116;28;20207;-65
2023/04/24 06:36:48;;;;;;;3.33;3.13;;;10.20;99.90;;;11.10;100.00;97083.47;5115248;28;20636;-64
2023/04/24 06:39:21;;;;;;;4.18;3.10;;;10.30;99.90;;;11.09;100.00;97088.53;5116374;28;20716;-65
2023/04/24 06:41:54;;;;;;;3.80;3.50;;;10.20;99.90;;;11.07;100.00;97088.44;5115600;28;20603;-64
2023/04/24 06:44:27;;;;;;;3.10;2.80;;;10.30;99.90;;;11.24;100.00;97081.50;5113454;28;20213;-65
2023/04/24 06:47:01;;;;;;;3.33;3.10;;;10.40;99.90;;;11.21;100.00;97068.56;5115946;28;20661;-62
2023/04/24 06:49:34;;;;;;;3.15;2.95;;;10.40;99.90;;;11.22;100.00;97063.53;5114202;28;20220;-64
2023/04/24 06:52:07;;;;;;;3.25;2.95;;;10.40;99.90;;;11.38;100.00;97069.28;5114139;28;20208;-65
2023/04/24 06:54:42;;;;;;;3.33;3.05;;;10.50;99.90;;;11.58;100.00;97068.38;5112874;28;20573;-64
2023/04/24 06:57:16;;;;;;;3.15;2.95;;;10.70;99.90;;;11.88;100.00;97060.22;5118113;28;20200;-65
2023/04/24 06:59:49;;;;;;;3.05;2.83;;;10.90;99.90;;;11.99;100.00;97070.88;5113044;28;20712;-62
2023/04/24 07:02:23;;;;;;;2.97;2.78;;;11.00;99.90;;;11.94;100.00;97065.59;5121050;28;20213;-65
2023/04/24 07:04:57;;;;;;;3.53;3.22;;;11.00;99.90;;;12.50;100.00;97061.69;5112367;28;20327;-63
2023/04/24 07:07:30;;;;;;;3.47;3.17;;;11.50;99.90;;;13.13;100.00;97060.47;5112860;28;20681;-64
2023/04/24 07:10:03;;;;;;;3.10;2.80;;;12.10;99.90;;;13.62;100.00;97062.13;5114693;28;20213;-64
2023/04/24 07:12:37;;;;;;;2.97;2.78;;;12.70;99.90;;;14.12;100.00;97055.13;5115123;28;20205;-64
2023/04/24 07:15:11;;;;;;;3.20;3.00;;;13.10;99.90;;;14.60;98.15;97058.31;5111365;28;20216;-65
2023/04/24 07:17:45;;;;;;;3.10;2.38;;;13.50;99.90;;;15.08;93.05;97063.06;5110480;28;20224;-65
2023/04/24 07:20:19;;;;;;;2.60;2.50;;;13.70;99.90;;;15.24;86.63;97061.72;5113238;28;20224;-65
2023/04/24 07:22:53;;;;;;;2.80;2.60;;;13.80;99.90;;;15.52;84.00;97065.03;5116380;28;20225;-65
2023/04/24 07:25:26;;;;;;;3.35;2.22;;;13.90;99.90;;;15.85;79.82;97057.28;5112825;29;20214;-65
2023/04/24 07:28:00;;;;;;;2.58;2.38;;;14.40;99.90;;;16.20;81.25;97068.38;5112285;28;20221;-65
2023/04/24 07:30:33;;;;;;;2.50;2.30;;;14.50;99.90;;;16.39;76.99;97063.59;5113371;28;20199;-64
2023/04/24 07:33:07;;;;;;;2.40;2.30;;;14.60;99.90;;;16.65;74.59;97054.72;5112994;29;20577;-64
2023/04/24 07:35:41;;;;;;;2.72;2.47;;;14.70;99.90;;;16.78;72.69;97055.84;5109585;28;20203;-63
2023/04/24 07:38:14;;;;;;;2.53;2.33;;;14.80;99.90;;;17.16;72.69;97045.38;5112828;28;20698;-65
2023/04/24 07:40:47;;;;;;;2.30;2.10;;;15.10;99.90;;;17.43;72.61;97057.91;5113468;28;20235;-64
2023/04/24 07:43:23;;;;;;;2.63;2.42;;;15.20;99.90;;;17.25;70.98;97055.00;5107571;28;20212;-65
2023/04/24 07:45:56;;;;;;;2.30;2.20;;;15.30;99.90;;;16.84;71.31;97052.50;5106814;28;20277;-66
2023/04/24 07:48:31;;;;;;;2.58;2.38;;;15.40;99.90;;;16.32;73.59;97060.03;5112113;28;20639;-65
2023/04/24 07:51:04;;;;;;;2.83;2.00;;;14.80;99.90;;;16.03;76.38;97063.69;5112836;28;20243;-66
2023/04/24 07:53:37;;;;;;;2.20;2.10;;;14.50;99.90;;;15.69;76.47;97056.03;5137461;28;20219;-64
2023/04/24 07:56:10;;;;;;;2.33;2.20;;;14.10;99.90;;;15.42;77.78;97060.47;5111036;28;20246;-66
2023/04/24 07:58:43;;;;;;;2.40;2.20;;;14.00;99.90;;;15.39;78.07;97065.53;5116122;28;21633;-66
2023/04/24 08:01:16;;;;;;;2.63;2.00;;;14.00;99.90;;;15.44;79.51;97054.50;5114431;28;20244;-65
2023/04/24 08:03:51;;;;;;;2.85;2.63;;;14.00;99.90;;;15.25;78.17;97076.38;5116208;28;20290;-65
2023/04/24 08:06:27;;;;;;;2.95;2.65;;;13.90;99.90;;;14.91;80.78;97086.56;5114108;28;20562;-64
2023/04/24 08:09:01;;;;;;;3.05;2.75;;;13.50;99.90;;;14.72;80.22;97092.91;5110584;28;20704;-64
2023/04/24 08:11:34;;;;;;;2.60;2.40;;;13.20;99.90;;;14.42;74.70;97091.16;5112805;28;21727;-65
2023/04/24 08:14:07;;;;;;;4.05;2.80;;;13.20;99.90;;;14.03;75.71;97101.13;5107925;28;20206;-64
2023/04/24 08:16:40;;;;;;;2.45;2.25;;;12.70;99.90;;;13.75;76.79;97102.81;5110400;28;20208;-65
2023/04/24 08:19:14;;;;;;;2.60;2.20;;;12.60;99.90;;;13.79;76.45;97101.19;5117354;28;20274;-65
2023/04/24 08:21:47;;;;;;;2.70;2.50;;;12.80;99.90;;;13.67;77.65;97106.81;5111634;28;20232;-65
2023/04/24 08:24:20;;;;;;;2.60;2.40;;;12.90;99.90;;;13.75;79.06;97095.97;5114433;28;20209;-66
2023/04/24 08:26:56;;;;;;;2.22;2.03;;;13.10;99.90;;;13.73;77.41;97107.00;5122771;28;20296;-65
2023/04/24 08:29:29;;;;;;;3.25;2.53;;;13.20;99.90;;;14.00;79.06;97095.88;5113432;28;21163;-65
2023/04/24 08:32:02;;;;;;;2.88;2.65;;;13.50;99.90;;;14.31;77.17;97108.84;5118696;28;20687;-65
2023/04/24 08:34:37;;;;;;;2.45;2.28;;;13.80;99.90;;;14.43;75.61;97114.34;5115693;28;20825;-64
2023/04/24 08:37:10;;;;;;;2.67;2.47;;;14.00;99.90;;;14.60;73.11;97101.16;5111668;28;20211;-63
2023/04/24 08:39:43;;;;;;;2.40;2.20;;;14.10;99.90;;;14.72;72.50;97122.09;5113971;28;20476;-65
2023/04/24 08:42:18;;;;;;;2.45;2.25;;;13.90;99.90;;;14.69;75.65;97126.28;5116587;28;20236;-65
2023/04/24 08:44:51;;;;;;;2.55;2.00;;;13.70;99.90;;;14.58;76.12;97133.66;5115342;28;20215;-65
2023/04/24 08:47:25;;;;;;;2.88;2.55;;;13.50;99.90;;;14.47;72.65;97135.00;5114433;28;20212;-65
2023/04/24 08:50:02;;;;;;;2.33;2.13;;;13.30;99.90;;;14.25;65.17;97129.22;5114016;28;20634;-65
2023/04/24 08:52:36;;;;;;;1.92;1.83;;;13.20;99.90;;;14.09;66.39;97130.44;5115993;28;20192;-65
2023/04/24 08:55:10;;;;;;;1.95;1.85;;;13.00;99.90;;;13.96;65.62;97147.19;5114025;28;20209;-64
2023/04/24 08:57:44;;;;;;;2.28;2.17;;;12.70;99.90;;;13.81;63.48;97145.78;5112557;28;20696;-65
2023/04/24 09:00:19;;;;;;;2.40;2.20;;;12.70;99.90;;;13.63;63.88;97144.38;5114775;28;20204;-65
2023/04/24 09:02:54;;;;;;;2.30;2.10;;;12.40;99.90;;;13.52;64.62;97151.69;5116494;28;20592;-65
2023/04/24 09:05:30;;;;;;;2.47;2.28;;;12.40;99.90;;;13.52;64.44;97149.13;5114194;28;20219;-65
2023/04/24 09:08:05;;;;;;;2.05;1.88;;;12.40;99.90;;;13.39;63.64;97156.34;5115564;28;20227;-63
2023/04/24 09:10:39;;;;;;;2.30;2.10;;;12.20;99.90;;;13.50;64.56;97160.16;5112582;28;20212;-65
2023/04/24 09:13:12;;;;;;;2.55;2.38;;;12.40;99.90;;;13.78;59.65;97140.56;5120437;28;20676;-64
2023/04/24 09:15:45;;;;;;;2.75;2.55;;;12.90;99.90;;;13.84;57.98;97146.75;5118104;28;20207;-64
2023/04/24 09:18:18;;;;;;;2.53;2.35;;;13.20;99.90;;;14.14;59.56;97140.88;5118020;28;20319;-64
2023/04/24 09:21:09;;;;;;;2.47;2.38;;;13.60;99.90;;;14.60;59.14;97142.31;5116431;28;20211;-64
2023/04/24 09:23:42;;;;;;;2.45;2.35;;;14.10;99.90;;;14.80;58.28;97133.47;5118224;28;20254;-64
2023/04/24 09:26:15;;;;;;;2.35;2.10;;;14.40;99.90;;;15.00;56.92;97133.16;5115489;28;20204;-64
2023/04/24 09:28:48;;;;;;;2.03;1.92;;;14.50;99.90;;;15.06;57.83;97144.50;5116585;28;20600;-64
2023/04/24 09:31:22;;;;;;;2.42;2.33;;;14.40;99.90;;;14.71;59.86;97142.59;5119900;28;20212;-64
2023/04/24 09:33:57;;;;;;;2.50;2.40;;;14.10;99.90;;;14.70;58.69;97153.72;5117655;28;20215;-64
2023/04/24 09:36:38;;;;;;;2.10;2.00;;;13.90;99.90;;;14.57;58.95;97145.66;5113268;28;20588;-65
2023/04/24 09:39:15;;;;;;;2.42;2.33;;;13.60;99.90;;;14.51;58.83;97157.44;5116050;28;20228;-65
2023/04/24 09:41:50;;;;;;;2.30;2.20;;;13.40;99.90;;;14.31;58.48;97165.41;5117487;28;20295;-65
2023/04/24 09:44:26;;;;;;;2.45;2.25;;;13.20;99.90;;;14.17;61.42;97151.25;5117122;28;20204;-65
2023/04/24 09:47:00;;;;;;;2.58;2.38;;;13.10;99.90;;;14.12;58.53;97169.09;5118648;28;20276;-65
2023/04/24 09:49:34;;;;;;;2.75;2.65;;;13.10;99.90;;;14.02;60.79;97172.19;5117061;28;20238;-65
2023/04/24 09:52:11;;;;;;;3.30;2.35;;;12.90;99.90;;;14.04;61.00;97179.94;5120050;28;20205;-65
2023/04/24 09:54:54;;;;;;;2.42;2.22;;;12.90;99.90;;;14.13;59.24;97186.25;5113702;29;20204;-64
2023/04/24 09:57:27;;;;;;;2.30;2.20;;;12.90;99.90;;;14.05;58.76;97177.44;5113300;28;20216;-64
2023/04/24 10:00:00;;;;;;;3.35;2.65;;;13.00;99.90;;;13.90;58.64;97197.47;5113193;29;20205;-65
2023/04/24 10:02:33;;;;;;;2.53;2.33;;;12.70;99.90;;;13.68;62.31;97207.03;5112074;28;20220;-64
2023/04/24 10:05:07;;;;;;;2.72;2.30;;;12.60;99.90;;;13.45;62.44;97208.81;5113616;28;20623;-65
2023/04/24 10:07:41;;;;;;;2.67;2.47;;;12.40;99.90;;;13.14;65.12;97216.19;5118945;28;20236;-65
2023/04/24 10:10:15;;;;;;;2.67;2.47;;;12.20;99.90;;;12.85;66.62;97219.44;5118253;28;20218;-65
2023/04/24 10:12:48;;;;;;;2.50;2.30;;;12.00;99.90;;;12.83;69.83;97215.06;5122727;28;20201;-64
2023/04/24 10:15:22;;;;;;;3.00;2.50;;;11.90;99.90;;;12.95;68.47;97217.19;5114302;28;20201;-65
2023/04/24 10:17:55;;;;;;;2.60;2.40;;;12.10;99.90;;;13.02;70.25;97217.50;5121467;28;20228;-64
2023/04/24 10:20:30;;;;;;;2.40;2.20;;;12.10;99.90;;;13.22;68.22;97209.63;5117173;28;20254;-64
2023/04/24 10:23:05;;;;;;;17.08;13.20;;;12.30;99.90;;;13.38;67.91;97214.53;5114066;28;20802;-65
2023/04/24 10:25:38;;;;;;;4.88;4.40;;;12.40;99.90;;;13.73;66.18;97214.88;5116644;28;20208;-64
2023/04/24 10:28:13;;;;;;;5.82;4.70;;;12.70;99.90;;;13.95;61.53;97206.22;5113231;28;20429;-65
2023/04/24 10:30:47;;;;;;;14.18;8.52;;;13.00;99.90;;;14.30;63.92;97202.19;5118210;28;20252;-65
2023/04/24 10:33:20;;;;;;;13.50;9.95;;;13.40;99.90;;;14.69;63.45;97198.31;5119349;28;20207;-65
2023/04/24 10:35:53;;;;;;;3.10;2.38;;;13.90;99.90;;;14.36;59.20;97194.69;5111181;28;20207;-65
2023/04/24 10:38:30;;;;;;;10.73;9.00;;;13.60;99.90;;;14.22;58.22;97216.50;5109070;28;20224;-65
2023/04/24 10:41:15;;;;;;;4.32;3.92;;;13.40;99.90;;;14.18;58.80;97209.53;5111147;28;20204;-65
2023/04/24 10:43:50;;;;;;;3.50;3.20;;;13.20;99.90;;;14.02;57.92;97212.41;5112730;28;20213;-64
2023/04/24 10:46:23;;;;;;;8.63;7.93;;;13.00;99.90;;;13.67;60.89;97223.25;5112764;28;20208;-65